TAF KMBS
AMD KMBS 082059Z 0821/0918 22007KT P6SM OVC030 FM090300 34004KT P6SM SCT030 BKN120 FM090700 VRB03KT P6SM FEW050 BKN150 FM091300 15008KT P6SM OVC100=
METAR KMBS
WC KMBS
WS KMBS
WV KMBS